sensor_id;sensor_type;location;lat;lon;timestamp;temperature;humidity
45008;DHT22;30743;52.008;5.644;2024-01-15T00:00:55;7.10;99.90
45008;DHT22;30743;52.008;5.644;2024-01-15T00:03:20;6.80;99.90
45008;DHT22;30743;52.008;5.644;2024-01-15T00:05:46;6.60;99.90
45008;DHT22;30743;52.008;5.644;2024-01-15T00:08:12;6.50;99.90
45008;DHT22;30743;52.008;5.644;2024-01-15T00:10:37;6.50;99.90
45008;DHT22;30743;52.008;5.644;2024-01-15T00:13:04;6.40;99.90
45008;DHT22;30743;52.008;5.644;2024-01-15T00:15:29;6.20;99.90
45008;DHT22;30743;52.008;5.644;2024-01-15T00:17:56;7.40;99.90
45008;DHT22;30743;52.008;5.644;2024-01-15T00:20:21;5.90;99.90
45008;DHT22;30743;52.008;5.644;2024-01-15T00:22:47;5.80;99.90
45008;DHT22;30743;52.008;5.644;2024-01-15T00:25:12;5.90;99.90
45008;DHT22;30743;52.008;5.644;2024-01-15T00:27:38;6.00;99.90
45008;DHT22;30743;52.008;5.644;2024-01-15T00:30:04;5.90;99.90
45008;DHT22;30743;52.008;5.644;2024-01-15T00:32:30;5.90;99.90
45008;DHT22;30743;52.008;5.644;2024-01-15T00:34:55;5.70;99.90
45008;DHT22;30743;52.008;5.644;2024-01-15T00:37:21;5.80;99.90
45008;DHT22;30743;52.008;5.644;2024-01-15T00:39:47;5.70;99.90
45008;DHT22;30743;52.008;5.644;2024-01-15T00:42:12;5.60;99.90
45008;DHT22;30743;52.008;5.644;2024-01-15T00:44:38;5.50;99.90
45008;DHT22;30743;52.008;5.644;2024-01-15T00:47:04;5.40;99.90
45008;DHT22;30743;52.008;5.644;2024-01-15T00:49:29;5.50;99.90
45008;DHT22;30743;52.008;5.644;2024-01-15T00:51:55;5.70;99.90
45008;DHT22;30743;52.008;5.644;2024-01-15T00:54:20;5.70;99.90
45008;DHT22;30743;52.008;5.644;2024-01-15T00:56:46;5.50;99.90
45008;DHT22;30743;52.008;5.644;2024-01-15T00:59:12;5.40;99.90
45008;DHT22;30743;52.008;5.644;2024-01-15T01:01:41;5.50;99.90
45008;DHT22;30743;52.008;5.644;2024-01-15T01:04:11;5.60;99.90
45008;DHT22;30743;52.008;5.644;2024-01-15T01:06:36;5.60;99.90
45008;DHT22;30743;52.008;5.644;2024-01-15T01:09:02;5.80;99.90
45008;DHT22;30743;52.008;5.644;2024-01-15T01:11:28;5.60;99.90
45008;DHT22;30743;52.008;5.644;2024-01-15T01:13:53;5.70;99.90
45008;DHT22;30743;52.008;5.644;2024-01-15T01:16:19;5.80;99.90
45008;DHT22;30743;52.008;5.644;2024-01-15T01:18:44;5.90;99.90
45008;DHT22;30743;52.008;5.644;2024-01-15T01:21:10;6.00;99.90
45008;DHT22;30743;52.008;5.644;2024-01-15T01:23:35;6.10;99.90
45008;DHT22;30743;52.008;5.644;2024-01-15T01:26:01;6.20;99.90
45008;DHT22;30743;52.008;5.644;2024-01-15T01:28:27;6.30;99.90
45008;DHT22;30743;52.008;5.644;2024-01-15T01:30:53;6.10;99.90
45008;DHT22;30743;52.008;5.644;2024-01-15T01:33:19;6.10;99.90
45008;DHT22;30743;52.008;5.644;2024-01-15T01:35:45;5.80;99.90
45008;DHT22;30743;52.008;5.644;2024-01-15T01:38:10;5.70;99.90
45008;DHT22;30743;52.008;5.644;2024-01-15T01:40:36;5.90;99.90
45008;DHT22;30743;52.008;5.644;2024-01-15T01:43:04;5.90;99.90
45008;DHT22;30743;52.008;5.644;2024-01-15T01:45:29;5.90;99.90
45008;DHT22;30743;52.008;5.644;2024-01-15T01:47:55;6.10;99.90
45008;DHT22;30743;52.008;5.644;2024-01-15T01:50:21;6.10;99.90
45008;DHT22;30743;52.008;5.644;2024-01-15T01:52:47;6.10;99.90
45008;DHT22;30743;52.008;5.644;2024-01-15T01:55:14;6.20;99.90
45008;DHT22;30743;52.008;5.644;2024-01-15T01:57:40;6.40;99.90
45008;DHT22;30743;52.008;5.644;2024-01-15T02:00:07;6.10;99.90
45008;DHT22;30743;52.008;5.644;2024-01-15T02:02:33;6.10;99.90
45008;DHT22;30743;52.008;5.644;2024-01-15T02:04:59;6.00;99.90
45008;DHT22;30743;52.008;5.644;2024-01-15T02:07:25;6.30;99.90
45008;DHT22;30743;52.008;5.644;2024-01-15T02:09:50;6.40;99.90
45008;DHT22;30743;52.008;5.644;2024-01-15T02:12:16;6.10;99.90
45008;DHT22;30743;52.008;5.644;2024-01-15T02:14:42;6.20;99.90
45008;DHT22;30743;52.008;5.644;2024-01-15T02:17:08;6.00;99.90
45008;DHT22;30743;52.008;5.644;2024-01-15T02:19:33;6.00;99.90
45008;DHT22;30743;52.008;5.644;2024-01-15T02:21:59;5.90;99.90
45008;DHT22;30743;52.008;5.644;2024-01-15T02:24:25;5.80;99.90
45008;DHT22;30743;52.008;5.644;2024-01-15T02:26:51;5.80;99.90
45008;DHT22;30743;52.008;5.644;2024-01-15T02:29:17;5.60;99.90
45008;DHT22;30743;52.008;5.644;2024-01-15T02:31:43;5.50;99.90
45008;DHT22;30743;52.008;5.644;2024-01-15T02:34:08;5.30;99.90
45008;DHT22;30743;52.008;5.644;2024-01-15T02:36:34;5.30;99.90
45008;DHT22;30743;52.008;5.644;2024-01-15T02:38:59;5.50;99.90
45008;DHT22;30743;52.008;5.644;2024-01-15T02:41:25;5.80;99.90
45008;DHT22;30743;52.008;5.644;2024-01-15T02:43:51;6.20;99.90
45008;DHT22;30743;52.008;5.644;2024-01-15T02:46:16;6.40;99.90
45008;DHT22;30743;52.008;5.644;2024-01-15T02:48:42;6.60;99.90
45008;DHT22;30743;52.008;5.644;2024-01-15T02:51:07;6.60;99.90
45008;DHT22;30743;52.008;5.644;2024-01-15T02:53:33;6.80;99.90
45008;DHT22;30743;52.008;5.644;2024-01-15T02:55:59;7.00;99.90
45008;DHT22;30743;52.008;5.644;2024-01-15T02:58:24;7.00;99.90
45008;DHT22;30743;52.008;5.644;2024-01-15T03:00:50;7.10;99.90
45008;DHT22;30743;52.008;5.644;2024-01-15T03:03:16;7.00;99.90
45008;DHT22;30743;52.008;5.644;2024-01-15T03:05:41;7.00;99.90
45008;DHT22;30743;52.008;5.644;2024-01-15T03:08:07;6.70;99.90
45008;DHT22;30743;52.008;5.644;2024-01-15T03:10:32;6.40;99.90
45008;DHT22;30743;52.008;5.644;2024-01-15T03:12:58;6.40;99.90
45008;DHT22;30743;52.008;5.644;2024-01-15T03:15:23;6.20;99.90
45008;DHT22;30743;52.008;5.644;2024-01-15T03:17:49;6.30;99.90
45008;DHT22;30743;52.008;5.644;2024-01-15T03:20:15;6.20;99.90
45008;DHT22;30743;52.008;5.644;2024-01-15T03:22:40;6.30;99.90
45008;DHT22;30743;52.008;5.644;2024-01-15T03:25:06;6.40;99.90
45008;DHT22;30743;52.008;5.644;2024-01-15T03:27:32;6.40;99.90
45008;DHT22;30743;52.008;5.644;2024-01-15T03:29:57;6.20;99.90
45008;DHT22;30743;52.008;5.644;2024-01-15T03:32:23;6.40;99.90
45008;DHT22;30743;52.008;5.644;2024-01-15T03:34:48;6.30;99.90
45008;DHT22;30743;52.008;5.644;2024-01-15T03:37:14;6.30;99.90
45008;DHT22;30743;52.008;5.644;2024-01-15T03:39:40;6.40;99.90
45008;DHT22;30743;52.008;5.644;2024-01-15T03:42:06;6.40;99.90
45008;DHT22;30743;52.008;5.644;2024-01-15T03:44:32;6.30;99.90
45008;DHT22;30743;52.008;5.644;2024-01-15T03:46:57;6.40;99.90
45008;DHT22;30743;52.008;5.644;2024-01-15T03:49:23;7.00;99.90
45008;DHT22;30743;52.008;5.644;2024-01-15T03:51:49;6.70;99.90
45008;DHT22;30743;52.008;5.644;2024-01-15T03:54:15;6.60;99.90
45008;DHT22;30743;52.008;5.644;2024-01-15T03:56:40;6.70;99.90
45008;DHT22;30743;52.008;5.644;2024-01-15T03:59:06;6.90;99.90
45008;DHT22;30743;52.008;5.644;2024-01-15T04:01:31;7.00;99.90
45008;DHT22;30743;52.008;5.644;2024-01-15T04:03:57;7.20;99.90
45008;DHT22;30743;52.008;5.644;2024-01-15T04:06:22;7.10;99.90
45008;DHT22;30743;52.008;5.644;2024-01-15T04:08:48;7.10;99.90
45008;DHT22;30743;52.008;5.644;2024-01-15T04:11:14;7.20;99.90
45008;DHT22;30743;52.008;5.644;2024-01-15T04:13:39;7.30;99.90
45008;DHT22;30743;52.008;5.644;2024-01-15T04:16:05;7.40;99.90
45008;DHT22;30743;52.008;5.644;2024-01-15T04:18:30;7.60;99.90
45008;DHT22;30743;52.008;5.644;2024-01-15T04:20:56;7.50;99.90
45008;DHT22;30743;52.008;5.644;2024-01-15T04:23:22;7.70;99.90
45008;DHT22;30743;52.008;5.644;2024-01-15T04:25:47;7.50;99.90
45008;DHT22;30743;52.008;5.644;2024-01-15T04:28:13;7.50;99.90
45008;DHT22;30743;52.008;5.644;2024-01-15T04:30:38;7.50;99.90
45008;DHT22;30743;52.008;5.644;2024-01-15T04:33:04;7.30;99.90
45008;DHT22;30743;52.008;5.644;2024-01-15T04:35:30;7.30;99.90
45008;DHT22;30743;52.008;5.644;2024-01-15T04:37:56;7.20;99.90
45008;DHT22;30743;52.008;5.644;2024-01-15T04:40:22;6.80;99.90
45008;DHT22;30743;52.008;5.644;2024-01-15T04:42:48;6.60;99.90
45008;DHT22;30743;52.008;5.644;2024-01-15T04:45:13;6.40;99.90
45008;DHT22;30743;52.008;5.644;2024-01-15T04:47:39;6.40;99.90
45008;DHT22;30743;52.008;5.644;2024-01-15T04:50:05;6.40;99.90
45008;DHT22;30743;52.008;5.644;2024-01-15T04:52:31;6.40;99.90
45008;DHT22;30743;52.008;5.644;2024-01-15T04:54:57;6.40;99.90
45008;DHT22;30743;52.008;5.644;2024-01-15T04:57:22;6.40;99.90
45008;DHT22;30743;52.008;5.644;2024-01-15T04:59:48;6.20;99.90
45008;DHT22;30743;52.008;5.644;2024-01-15T05:02:14;6.20;99.90
45008;DHT22;30743;52.008;5.644;2024-01-15T05:04:39;6.20;99.90
45008;DHT22;30743;52.008;5.644;2024-01-15T05:07:05;6.10;99.90
45008;DHT22;30743;52.008;5.644;2024-01-15T05:09:30;6.60;99.90
45008;DHT22;30743;52.008;5.644;2024-01-15T05:11:56;5.80;99.90
45008;DHT22;30743;52.008;5.644;2024-01-15T05:14:22;5.80;99.90
45008;DHT22;30743;52.008;5.644;2024-01-15T05:16:48;5.70;99.90
45008;DHT22;30743;52.008;5.644;2024-01-15T05:19:14;6.90;99.90
45008;DHT22;30743;52.008;5.644;2024-01-15T05:21:39;5.40;99.90
45008;DHT22;30743;52.008;5.644;2024-01-15T05:24:05;5.40;99.90
45008;DHT22;30743;52.008;5.644;2024-01-15T05:26:31;5.20;99.90
45008;DHT22;30743;52.008;5.644;2024-01-15T05:28:56;5.00;99.90
45008;DHT22;30743;52.008;5.644;2024-01-15T05:31:22;5.40;99.90
45008;DHT22;30743;52.008;5.644;2024-01-15T05:33:48;5.50;99.90
45008;DHT22;30743;52.008;5.644;2024-01-15T05:36:14;5.30;99.90
45008;DHT22;30743;52.008;5.644;2024-01-15T05:38:39;5.30;99.90
45008;DHT22;30743;52.008;5.644;2024-01-15T05:41:05;5.10;99.90
45008;DHT22;30743;52.008;5.644;2024-01-15T05:43:31;5.00;99.90
45008;DHT22;30743;52.008;5.644;2024-01-15T05:45:57;5.10;99.90
45008;DHT22;30743;52.008;5.644;2024-01-15T05:48:23;5.20;99.90
45008;DHT22;30743;52.008;5.644;2024-01-15T05:50:49;5.20;99.90
45008;DHT22;30743;52.008;5.644;2024-01-15T05:53:14;5.10;99.90
45008;DHT22;30743;52.008;5.644;2024-01-15T05:55:40;5.10;99.90
45008;DHT22;30743;52.008;5.644;2024-01-15T05:58:06;4.90;99.90
45008;DHT22;30743;52.008;5.644;2024-01-15T06:00:31;4.90;99.90
45008;DHT22;30743;52.008;5.644;2024-01-15T06:02:58;4.90;99.90
45008;DHT22;30743;52.008;5.644;2024-01-15T06:05:24;5.00;99.90
45008;DHT22;30743;52.008;5.644;2024-01-15T06:07:50;5.10;99.90
45008;DHT22;30743;52.008;5.644;2024-01-15T06:10:16;5.40;99.90
45008;DHT22;30743;52.008;5.644;2024-01-15T06:12:43;5.50;99.90
45008;DHT22;30743;52.008;5.644;2024-01-15T06:15:09;5.50;99.90
45008;DHT22;30743;52.008;5.644;2024-01-15T06:17:34;5.90;99.90
45008;DHT22;30743;52.008;5.644;2024-01-15T06:20:00;6.60;99.90
45008;DHT22;30743;52.008;5.644;2024-01-15T06:22:25;5.90;99.90
45008;DHT22;30743;52.008;5.644;2024-01-15T06:24:51;5.90;99.90
45008;DHT22;30743;52.008;5.644;2024-01-15T06:27:16;6.10;99.90
45008;DHT22;30743;52.008;5.644;2024-01-15T06:29:45;6.70;99.90
45008;DHT22;30743;52.008;5.644;2024-01-15T06:32:12;6.50;99.90
45008;DHT22;30743;52.008;5.644;2024-01-15T06:34:38;6.60;99.90
45008;DHT22;30743;52.008;5.644;2024-01-15T06:37:03;6.90;99.90
45008;DHT22;30743;52.008;5.644;2024-01-15T06:39:29;7.00;99.90
45008;DHT22;30743;52.008;5.644;2024-01-15T06:41:55;7.10;99.90
45008;DHT22;30743;52.008;5.644;2024-01-15T06:44:20;7.10;99.90
45008;DHT22;30743;52.008;5.644;2024-01-15T06:46:47;7.10;99.90
45008;DHT22;30743;52.008;5.644;2024-01-15T06:49:12;7.20;99.90
45008;DHT22;30743;52.008;5.644;2024-01-15T06:51:38;7.10;99.90
45008;DHT22;30743;52.008;5.644;2024-01-15T06:54:04;7.10;99.90
45008;DHT22;30743;52.008;5.644;2024-01-15T06:56:31;6.80;99.90
45008;DHT22;30743;52.008;5.644;2024-01-15T06:58:57;6.70;99.90
45008;DHT22;30743;52.008;5.644;2024-01-15T07:01:22;6.50;99.90
45008;DHT22;30743;52.008;5.644;2024-01-15T07:03:48;6.20;99.90
45008;DHT22;30743;52.008;5.644;2024-01-15T07:06:14;6.30;99.90
45008;DHT22;30743;52.008;5.644;2024-01-15T07:08:40;6.30;99.90
45008;DHT22;30743;52.008;5.644;2024-01-15T07:11:06;6.60;99.90
45008;DHT22;30743;52.008;5.644;2024-01-15T07:13:32;6.20;99.90
45008;DHT22;30743;52.008;5.644;2024-01-15T07:15:58;6.30;99.90
45008;DHT22;30743;52.008;5.644;2024-01-15T07:18:23;6.20;99.90
45008;DHT22;30743;52.008;5.644;2024-01-15T07:20:50;5.90;99.90
45008;DHT22;30743;52.008;5.644;2024-01-15T07:23:15;5.60;99.90
45008;DHT22;30743;52.008;5.644;2024-01-15T07:25:41;5.40;99.90
45008;DHT22;30743;52.008;5.644;2024-01-15T07:28:07;5.20;99.90
45008;DHT22;30743;52.008;5.644;2024-01-15T07:30:32;5.10;99.90
45008;DHT22;30743;52.008;5.644;2024-01-15T07:32:58;5.00;99.90
45008;DHT22;30743;52.008;5.644;2024-01-15T07:35:24;4.90;99.90
45008;DHT22;30743;52.008;5.644;2024-01-15T07:37:49;4.80;99.90
45008;DHT22;30743;52.008;5.644;2024-01-15T07:40:15;4.90;99.90
45008;DHT22;30743;52.008;5.644;2024-01-15T07:42:41;5.00;99.90
45008;DHT22;30743;52.008;5.644;2024-01-15T07:45:08;4.80;99.90
45008;DHT22;30743;52.008;5.644;2024-01-15T07:47:34;4.90;99.90
45008;DHT22;30743;52.008;5.644;2024-01-15T07:50:00;4.70;99.90
45008;DHT22;30743;52.008;5.644;2024-01-15T07:52:26;4.60;99.90
45008;DHT22;30743;52.008;5.644;2024-01-15T07:54:51;4.90;99.90
45008;DHT22;30743;52.008;5.644;2024-01-15T07:57:17;5.10;99.90
45008;DHT22;30743;52.008;5.644;2024-01-15T07:59:42;5.10;99.90
45008;DHT22;30743;52.008;5.644;2024-01-15T08:02:08;5.00;99.90
45008;DHT22;30743;52.008;5.644;2024-01-15T08:04:34;5.10;99.90
45008;DHT22;30743;52.008;5.644;2024-01-15T08:06:59;5.20;99.90
45008;DHT22;30743;52.008;5.644;2024-01-15T08:09:25;5.30;99.90
45008;DHT22;30743;52.008;5.644;2024-01-15T08:11:50;5.40;99.90
45008;DHT22;30743;52.008;5.644;2024-01-15T08:14:17;5.60;99.90
45008;DHT22;30743;52.008;5.644;2024-01-15T08:16:43;5.80;99.90
45008;DHT22;30743;52.008;5.644;2024-01-15T08:19:09;5.70;99.90
45008;DHT22;30743;52.008;5.644;2024-01-15T08:21:35;5.50;99.90
45008;DHT22;30743;52.008;5.644;2024-01-15T08:24:01;5.50;99.90
45008;DHT22;30743;52.008;5.644;2024-01-15T08:26:30;5.10;99.90
45008;DHT22;30743;52.008;5.644;2024-01-15T08:28:57;5.10;99.90
45008;DHT22;30743;52.008;5.644;2024-01-15T08:31:23;5.50;99.90
45008;DHT22;30743;52.008;5.644;2024-01-15T08:33:49;5.60;99.90
45008;DHT22;30743;52.008;5.644;2024-01-15T08:36:14;5.90;99.90
45008;DHT22;30743;52.008;5.644;2024-01-15T08:38:40;5.80;99.90
45008;DHT22;30743;52.008;5.644;2024-01-15T08:41:06;5.80;99.90
45008;DHT22;30743;52.008;5.644;2024-01-15T08:43:34;5.70;99.90
45008;DHT22;30743;52.008;5.644;2024-01-15T08:45:59;6.70;99.90
45008;DHT22;30743;52.008;5.644;2024-01-15T08:48:26;5.80;99.90
45008;DHT22;30743;52.008;5.644;2024-01-15T08:50:55;5.90;99.90
45008;DHT22;30743;52.008;5.644;2024-01-15T08:53:20;6.10;99.90
45008;DHT22;30743;52.008;5.644;2024-01-15T08:55:47;6.70;99.90
45008;DHT22;30743;52.008;5.644;2024-01-15T08:58:13;6.40;99.90
45008;DHT22;30743;52.008;5.644;2024-01-15T09:00:39;6.40;99.90
45008;DHT22;30743;52.008;5.644;2024-01-15T09:03:05;6.70;99.90
45008;DHT22;30743;52.008;5.644;2024-01-15T09:05:30;8.20;99.90
45008;DHT22;30743;52.008;5.644;2024-01-15T09:07:56;6.60;99.90
45008;DHT22;30743;52.008;5.644;2024-01-15T09:10:22;6.50;99.90
45008;DHT22;30743;52.008;5.644;2024-01-15T09:12:47;6.50;99.90
45008;DHT22;30743;52.008;5.644;2024-01-15T09:15:14;6.50;99.90
45008;DHT22;30743;52.008;5.644;2024-01-15T09:17:40;6.50;99.90
45008;DHT22;30743;52.008;5.644;2024-01-15T09:20:06;6.30;99.90
45008;DHT22;30743;52.008;5.644;2024-01-15T09:22:32;6.20;99.90
45008;DHT22;30743;52.008;5.644;2024-01-15T09:24:58;6.10;99.90
45008;DHT22;30743;52.008;5.644;2024-01-15T09:27:24;6.20;99.90
45008;DHT22;30743;52.008;5.644;2024-01-15T09:29:54;6.60;99.90
45008;DHT22;30743;52.008;5.644;2024-01-15T09:32:20;6.60;99.90
45008;DHT22;30743;52.008;5.644;2024-01-15T09:34:46;6.80;99.90
45008;DHT22;30743;52.008;5.644;2024-01-15T09:37:12;6.60;99.90
45008;DHT22;30743;52.008;5.644;2024-01-15T09:39:38;6.80;99.90
45008;DHT22;30743;52.008;5.644;2024-01-15T09:42:04;6.00;99.90
45008;DHT22;30743;52.008;5.644;2024-01-15T09:44:31;5.70;99.90
45008;DHT22;30743;52.008;5.644;2024-01-15T09:46:57;5.90;99.90
45008;DHT22;30743;52.008;5.644;2024-01-15T09:49:23;5.60;99.90
45008;DHT22;30743;52.008;5.644;2024-01-15T09:51:49;5.60;99.90
45008;DHT22;30743;52.008;5.644;2024-01-15T09:54:16;6.00;99.90
45008;DHT22;30743;52.008;5.644;2024-01-15T09:56:45;5.90;99.90
45008;DHT22;30743;52.008;5.644;2024-01-15T09:59:16;6.30;99.90
45008;DHT22;30743;52.008;5.644;2024-01-15T10:01:43;7.30;99.90
45008;DHT22;30743;52.008;5.644;2024-01-15T10:04:10;9.30;99.90
45008;DHT22;30743;52.008;5.644;2024-01-15T10:06:38;9.00;99.90
45008;DHT22;30743;52.008;5.644;2024-01-15T10:09:05;9.60;99.90
45008;DHT22;30743;52.008;5.644;2024-01-15T10:11:31;9.20;99.90
45008;DHT22;30743;52.008;5.644;2024-01-15T10:13:57;8.40;99.90
45008;DHT22;30743;52.008;5.644;2024-01-15T10:16:23;9.20;99.90
45008;DHT22;30743;52.008;5.644;2024-01-15T10:18:49;7.80;99.90
45008;DHT22;30743;52.008;5.644;2024-01-15T10:21:15;7.60;99.90
45008;DHT22;30743;52.008;5.644;2024-01-15T10:23:41;7.20;99.90
45008;DHT22;30743;52.008;5.644;2024-01-15T10:26:07;7.20;99.90
45008;DHT22;30743;52.008;5.644;2024-01-15T10:28:34;7.10;99.90
45008;DHT22;30743;52.008;5.644;2024-01-15T10:31:00;7.50;99.90
45008;DHT22;30743;52.008;5.644;2024-01-15T10:33:26;8.10;99.90
45008;DHT22;30743;52.008;5.644;2024-01-15T10:35:56;9.10;99.90
45008;DHT22;30743;52.008;5.644;2024-01-15T10:38:22;9.90;99.90
45008;DHT22;30743;52.008;5.644;2024-01-15T10:40:54;9.70;99.90
45008;DHT22;30743;52.008;5.644;2024-01-15T10:43:21;9.20;99.90
45008;DHT22;30743;52.008;5.644;2024-01-15T10:45:48;9.70;99.90
45008;DHT22;30743;52.008;5.644;2024-01-15T10:48:15;10.60;99.90
45008;DHT22;30743;52.008;5.644;2024-01-15T10:50:41;10.90;99.90
45008;DHT22;30743;52.008;5.644;2024-01-15T10:53:08;10.70;99.90
45008;DHT22;30743;52.008;5.644;2024-01-15T10:55:35;10.60;99.90
45008;DHT22;30743;52.008;5.644;2024-01-15T10:58:02;10.10;99.90
45008;DHT22;30743;52.008;5.644;2024-01-15T11:00:29;9.40;99.90
45008;DHT22;30743;52.008;5.644;2024-01-15T11:02:55;9.00;99.90
45008;DHT22;30743;52.008;5.644;2024-01-15T11:05:21;8.70;99.90
45008;DHT22;30743;52.008;5.644;2024-01-15T11:07:50;8.40;99.90
45008;DHT22;30743;52.008;5.644;2024-01-15T11:10:38;8.20;99.90
45008;DHT22;30743;52.008;5.644;2024-01-15T11:13:08;8.20;99.90
45008;DHT22;30743;52.008;5.644;2024-01-15T11:15:57;8.30;99.90
45008;DHT22;30743;52.008;5.644;2024-01-15T11:18:23;8.00;99.90
45008;DHT22;30743;52.008;5.644;2024-01-15T11:23:46;7.50;99.90
45008;DHT22;30743;52.008;5.644;2024-01-15T11:26:34;7.80;99.90
45008;DHT22;30743;52.008;5.644;2024-01-15T11:29:09;8.10;99.90
45008;DHT22;30743;52.008;5.644;2024-01-15T11:34:07;8.60;99.90
45008;DHT22;30743;52.008;5.644;2024-01-15T11:39:40;8.80;99.90
45008;DHT22;30743;52.008;5.644;2024-01-15T11:42:09;8.80;99.90
45008;DHT22;30743;52.008;5.644;2024-01-15T11:44:34;8.90;99.90
45008;DHT22;30743;52.008;5.644;2024-01-15T11:47:05;8.90;99.90
45008;DHT22;30743;52.008;5.644;2024-01-15T11:52:02;8.90;99.90
45008;DHT22;30743;52.008;5.644;2024-01-15T11:54:30;9.20;99.90
45008;DHT22;30743;52.008;5.644;2024-01-15T11:57:00;9.70;99.90
45008;DHT22;30743;52.008;5.644;2024-01-15T11:59:29;10.70;99.90
45008;DHT22;30743;52.008;5.644;2024-01-15T12:01:55;12.40;99.90
45008;DHT22;30743;52.008;5.644;2024-01-15T12:04:21;13.10;99.90
45008;DHT22;30743;52.008;5.644;2024-01-15T12:06:47;14.90;99.90
45008;DHT22;30743;52.008;5.644;2024-01-15T12:09:12;14.40;99.90
45008;DHT22;30743;52.008;5.644;2024-01-15T12:11:39;15.00;99.90
45008;DHT22;30743;52.008;5.644;2024-01-15T12:14:07;15.00;99.90
45008;DHT22;30743;52.008;5.644;2024-01-15T12:16:33;15.30;99.90
45008;DHT22;30743;52.008;5.644;2024-01-15T12:18:59;14.60;99.90
45008;DHT22;30743;52.008;5.644;2024-01-15T12:21:26;13.80;99.90
45008;DHT22;30743;52.008;5.644;2024-01-15T12:23:52;13.60;99.90
45008;DHT22;30743;52.008;5.644;2024-01-15T12:26:19;13.50;99.90
45008;DHT22;30743;52.008;5.644;2024-01-15T12:28:45;13.10;99.90
45008;DHT22;30743;52.008;5.644;2024-01-15T12:31:11;13.90;99.90
45008;DHT22;30743;52.008;5.644;2024-01-15T12:33:36;12.60;99.90
45008;DHT22;30743;52.008;5.644;2024-01-15T12:36:03;12.30;99.90
45008;DHT22;30743;52.008;5.644;2024-01-15T12:38:29;11.90;99.90
45008;DHT22;30743;52.008;5.644;2024-01-15T12:40:54;12.80;99.90
45008;DHT22;30743;52.008;5.644;2024-01-15T12:43:20;12.00;99.90
45008;DHT22;30743;52.008;5.644;2024-01-15T12:45:46;11.90;99.90
45008;DHT22;30743;52.008;5.644;2024-01-15T12:48:11;11.90;99.90
45008;DHT22;30743;52.008;5.644;2024-01-15T12:50:42;11.80;99.90
45008;DHT22;30743;52.008;5.644;2024-01-15T12:53:08;11.30;99.90
45008;DHT22;30743;52.008;5.644;2024-01-15T12:55:34;11.60;99.90
45008;DHT22;30743;52.008;5.644;2024-01-15T12:58:00;11.90;99.90
45008;DHT22;30743;52.008;5.644;2024-01-15T13:00:25;11.10;99.90
45008;DHT22;30743;52.008;5.644;2024-01-15T13:02:51;10.40;99.90
45008;DHT22;30743;52.008;5.644;2024-01-15T13:05:17;10.50;99.90
45008;DHT22;30743;52.008;5.644;2024-01-15T13:07:42;10.00;99.90
45008;DHT22;30743;52.008;5.644;2024-01-15T13:10:09;10.00;99.90
45008;DHT22;30743;52.008;5.644;2024-01-15T13:12:34;9.20;99.90
45008;DHT22;30743;52.008;5.644;2024-01-15T13:15:00;9.10;99.90
45008;DHT22;30743;52.008;5.644;2024-01-15T13:17:28;8.90;99.90
45008;DHT22;30743;52.008;5.644;2024-01-15T13:19:54;8.90;99.90
45008;DHT22;30743;52.008;5.644;2024-01-15T13:22:20;8.80;99.90
45008;DHT22;30743;52.008;5.644;2024-01-15T13:24:45;8.80;99.90
45008;DHT22;30743;52.008;5.644;2024-01-15T13:27:11;8.70;99.90
45008;DHT22;30743;52.008;5.644;2024-01-15T13:29:37;8.50;99.90
45008;DHT22;30743;52.008;5.644;2024-01-15T13:32:03;8.30;99.90
45008;DHT22;30743;52.008;5.644;2024-01-15T13:34:30;8.30;99.90
45008;DHT22;30743;52.008;5.644;2024-01-15T13:36:55;8.30;99.90
45008;DHT22;30743;52.008;5.644;2024-01-15T13:39:22;8.30;99.90
45008;DHT22;30743;52.008;5.644;2024-01-15T13:41:49;9.40;99.90
45008;DHT22;30743;52.008;5.644;2024-01-15T13:44:14;8.30;99.90
45008;DHT22;30743;52.008;5.644;2024-01-15T13:46:40;8.40;99.90
45008;DHT22;30743;52.008;5.644;2024-01-15T13:49:07;8.50;99.90
45008;DHT22;30743;52.008;5.644;2024-01-15T13:51:32;9.20;99.90
45008;DHT22;30743;52.008;5.644;2024-01-15T13:53:58;11.30;99.90
45008;DHT22;30743;52.008;5.644;2024-01-15T13:56:24;12.60;99.90
45008;DHT22;30743;52.008;5.644;2024-01-15T13:58:49;12.60;99.90
45008;DHT22;30743;52.008;5.644;2024-01-15T14:01:15;14.50;99.90
45008;DHT22;30743;52.008;5.644;2024-01-15T14:03:43;15.00;99.90
45008;DHT22;30743;52.008;5.644;2024-01-15T14:06:08;16.20;99.90
45008;DHT22;30743;52.008;5.644;2024-01-15T14:08:37;14.60;99.90
45008;DHT22;30743;52.008;5.644;2024-01-15T14:11:03;14.40;99.90
45008;DHT22;30743;52.008;5.644;2024-01-15T14:13:31;13.80;99.90
45008;DHT22;30743;52.008;5.644;2024-01-15T14:15:57;13.50;99.90
45008;DHT22;30743;52.008;5.644;2024-01-15T14:18:23;13.10;99.90
45008;DHT22;30743;52.008;5.644;2024-01-15T14:20:48;12.70;99.90
45008;DHT22;30743;52.008;5.644;2024-01-15T14:23:14;12.00;99.90
45008;DHT22;30743;52.008;5.644;2024-01-15T14:25:39;11.60;99.90
45008;DHT22;30743;52.008;5.644;2024-01-15T14:28:05;10.70;99.90
45008;DHT22;30743;52.008;5.644;2024-01-15T14:30:31;10.50;99.90
45008;DHT22;30743;52.008;5.644;2024-01-15T14:32:58;10.50;99.90
45008;DHT22;30743;52.008;5.644;2024-01-15T14:35:23;10.80;99.90
45008;DHT22;30743;52.008;5.644;2024-01-15T14:37:49;11.20;99.90
45008;DHT22;30743;52.008;5.644;2024-01-15T14:40:14;11.60;99.90
45008;DHT22;30743;52.008;5.644;2024-01-15T14:42:44;11.60;99.90
45008;DHT22;30743;52.008;5.644;2024-01-15T14:45:09;11.30;99.90
45008;DHT22;30743;52.008;5.644;2024-01-15T14:47:37;12.50;99.90
45008;DHT22;30743;52.008;5.644;2024-01-15T14:50:05;11.50;99.90
45008;DHT22;30743;52.008;5.644;2024-01-15T14:52:31;10.60;99.90
45008;DHT22;30743;52.008;5.644;2024-01-15T14:54:56;10.40;99.90
45008;DHT22;30743;52.008;5.644;2024-01-15T14:57:22;10.20;99.90
45008;DHT22;30743;52.008;5.644;2024-01-15T14:59:48;9.80;99.90
45008;DHT22;30743;52.008;5.644;2024-01-15T15:02:13;9.70;99.90
45008;DHT22;30743;52.008;5.644;2024-01-15T15:04:40;9.50;99.90
45008;DHT22;30743;52.008;5.644;2024-01-15T15:07:07;9.50;99.90
45008;DHT22;30743;52.008;5.644;2024-01-15T15:09:32;9.50;99.90
45008;DHT22;30743;52.008;5.644;2024-01-15T15:11:58;10.60;99.90
45008;DHT22;30743;52.008;5.644;2024-01-15T15:14:24;9.20;99.90
45008;DHT22;30743;52.008;5.644;2024-01-15T15:16:49;8.90;99.90
45008;DHT22;30743;52.008;5.644;2024-01-15T15:19:15;8.90;99.90
45008;DHT22;30743;52.008;5.644;2024-01-15T15:21:42;8.90;99.90
45008;DHT22;30743;52.008;5.644;2024-01-15T15:24:08;8.90;99.90
45008;DHT22;30743;52.008;5.644;2024-01-15T15:26:34;8.70;99.90
45008;DHT22;30743;52.008;5.644;2024-01-15T15:28:59;8.50;99.90
45008;DHT22;30743;52.008;5.644;2024-01-15T15:31:25;8.50;99.90
45008;DHT22;30743;52.008;5.644;2024-01-15T15:33:51;8.10;99.90
45008;DHT22;30743;52.008;5.644;2024-01-15T15:36:16;7.90;99.90
45008;DHT22;30743;52.008;5.644;2024-01-15T15:38:43;7.70;99.90
45008;DHT22;30743;52.008;5.644;2024-01-15T15:41:08;7.60;99.90
45008;DHT22;30743;52.008;5.644;2024-01-15T15:43:34;7.70;99.90
45008;DHT22;30743;52.008;5.644;2024-01-15T15:46:00;7.10;99.90